Time;durP1;ratioP1;P1;durP2;ratioP2;P2;SDS_P1;SDS_P2;PMS_P1;PMS_P2;Temp;Humidity;BMP_temperature;BMP_pressure;BME280_temperature;BME280_humidity;BME280_pressure;Samples;Min_cycle;Max_cycle;Signal;HPM_P1;HPM_P2
2023/11/15 00:04:10;;;;;;;3.20;1.08;;;16.20;76.70;;;;;;10406769;28;20512;-59
2023/11/15 00:09:11;;;;;;;3.22;1.73;;;16.20;76.70;;;;;;10408541;28;20025;-58
2023/11/15 00:14:11;;;;;;;3.03;1.50;;;16.20;76.70;;;;;;10408072;28;20022;-59
2023/11/15 00:19:13;;;;;;;3.75;1.20;;;16.20;76.60;;;;;;10408786;28;20036;-58
2023/11/15 00:24:14;;;;;;;3.10;1.90;;;16.10;76.70;;;;;;10408092;28;20029;-59
2023/11/15 00:29:14;;;;;;;3.33;1.20;;;16.10;76.60;;;;;;10408041;28;20104;-59
2023/11/15 00:34:15;;;;;;;1.60;0.80;;;16.10;76.70;;;;;;10410482;28;20026;-59
2023/11/15 00:39:16;;;;;;;3.55;1.25;;;16.20;76.80;;;;;;10416093;28;20477;-59
2023/11/15 00:44:17;;;;;;;3.08;1.40;;;16.10;76.70;;;;;;10415095;28;20022;-59
2023/11/15 00:49:18;;;;;;;2.45;1.25;;;16.10;76.60;;;;;;10415232;28;20555;-58
2023/11/15 00:54:19;;;;;;;3.45;1.15;;;16.10;76.60;;;;;;10414805;28;20046;-58
2023/11/15 00:59:22;;;;;;;3.75;1.48;;;16.10;76.60;;;;;;10414854;28;20030;-59
2023/11/15 01:04:25;;;;;;;2.25;1.02;;;16.10;76.60;;;;;;10414530;28;20491;-59
2023/11/15 01:09:27;;;;;;;2.40;1.23;;;16.10;76.70;;;;;;10414547;28;20026;-59
2023/11/15 01:14:28;;;;;;;2.72;0.98;;;16.00;76.60;;;;;;10413946;28;20108;-59
2023/11/15 01:19:29;;;;;;;3.50;1.40;;;16.10;76.60;;;;;;10414582;28;20029;-58
2023/11/15 01:24:30;;;;;;;2.05;1.20;;;16.10;76.60;;;;;;10413819;28;20055;-59
2023/11/15 01:29:31;;;;;;;3.15;1.38;;;16.00;76.60;;;;;;10414202;28;20454;-58
2023/11/15 01:34:31;;;;;;;2.30;0.90;;;16.10;76.60;;;;;;10413207;28;20132;-59
2023/11/15 01:39:32;;;;;;;2.10;1.00;;;16.00;76.70;;;;;;10413566;28;20037;-58
2023/11/15 01:44:34;;;;;;;2.50;1.35;;;16.10;76.60;;;;;;10412416;28;20029;-58
2023/11/15 01:49:34;;;;;;;2.67;0.90;;;16.00;76.60;;;;;;10412999;28;20529;-58
2023/11/15 01:54:35;;;;;;;2.08;1.02;;;16.00;76.50;;;;;;10412665;28;20048;-58
2023/11/15 01:59:36;;;;;;;2.35;1.02;;;16.00;76.60;;;;;;10412757;28;20037;-58
2023/11/15 02:04:37;;;;;;;3.22;1.00;;;16.00;76.50;;;;;;10411292;28;20057;-59
2023/11/15 02:09:38;;;;;;;1.92;0.77;;;16.00;76.50;;;;;;10412164;28;20035;-59
2023/11/15 02:14:38;;;;;;;2.00;1.00;;;16.00;76.50;;;;;;10410327;28;20041;-59
2023/11/15 02:19:39;;;;;;;2.38;0.95;;;16.00;76.70;;;;;;10412115;28;20476;-59
2023/11/15 02:24:40;;;;;;;2.03;0.88;;;16.00;76.60;;;;;;10411064;28;20036;-58
2023/11/15 02:29:41;;;;;;;1.80;0.93;;;16.00;76.70;;;;;;10421574;28;20060;-57
2023/11/15 02:34:42;;;;;;;1.83;0.80;;;15.90;76.50;;;;;;10414105;28;20028;-59
2023/11/15 02:39:43;;;;;;;2.53;0.90;;;16.00;76.60;;;;;;10411282;28;20023;-58
2023/11/15 02:44:43;;;;;;;3.03;1.00;;;16.00;76.60;;;;;;10410575;28;20030;-59
2023/11/15 02:49:45;;;;;;;2.08;0.90;;;15.90;76.50;;;;;;10410852;28;20536;-58
2023/11/15 02:54:47;;;;;;;1.83;0.90;;;15.90;76.50;;;;;;10410122;28;20025;-59
2023/11/15 02:59:47;;;;;;;2.25;0.73;;;15.90;76.50;;;;;;10409765;28;20017;-58
2023/11/15 03:04:48;;;;;;;2.10;1.00;;;15.90;76.60;;;;;;10409851;28;20048;-58
2023/11/15 03:09:49;;;;;;;1.55;0.77;;;15.90;76.60;;;;;;10410070;28;20041;-58
2023/11/15 03:14:50;;;;;;;5.07;1.65;;;15.90;76.60;;;;;;10409429;28;20034;-58
2023/11/15 03:19:50;;;;;;;1.45;0.52;;;15.90;76.60;;;;;;10409857;28;20461;-59
2023/11/15 03:24:51;;;;;;;2.40;0.80;;;15.90;76.70;;;;;;10409294;28;20033;-57
2023/11/15 03:29:52;;;;;;;2.03;1.02;;;15.90;76.70;;;;;;10419762;28;20044;-58
2023/11/15 03:34:53;;;;;;;1.80;0.98;;;15.90;76.60;;;;;;10410038;28;20091;-58
2023/11/15 03:39:54;;;;;;;1.75;0.70;;;15.90;76.70;;;;;;10409274;28;20492;-57
2023/11/15 03:44:55;;;;;;;3.40;1.10;;;15.90;76.50;;;;;;10408528;28;20492;-58
2023/11/15 03:49:55;;;;;;;2.88;1.58;;;15.90;76.60;;;;;;10408676;28;20025;-58
2023/11/15 03:54:56;;;;;;;2.25;0.70;;;15.90;76.70;;;;;;10408759;28;20099;-58
2023/11/15 03:59:58;;;;;;;2.45;1.27;;;15.90;76.60;;;;;;10408525;28;20488;-58
2023/11/15 04:04:59;;;;;;;1.75;0.75;;;15.80;76.50;;;;;;10408742;28;20400;-58
2023/11/15 04:10:00;;;;;;;3.00;1.33;;;15.80;76.60;;;;;;10412172;28;20037;-58
2023/11/15 04:15:03;;;;;;;2.33;0.77;;;15.80;76.70;;;;;;10416731;28;20112;-58
2023/11/15 04:20:08;;;;;;;2.30;0.90;;;15.80;76.60;;;;;;10416236;28;20409;-57
2023/11/15 04:25:09;;;;;;;2.90;0.90;;;15.90;76.70;;;;;;10416337;28;20029;-57
2023/11/15 04:30:10;;;;;;;1.30;0.70;;;15.80;76.60;;;;;;10415859;28;20054;-58
2023/11/15 04:35:11;;;;;;;3.35;1.10;;;15.80;76.60;;;;;;10420682;28;20480;-57
2023/11/15 04:40:12;;;;;;;2.58;1.00;;;15.80;76.60;;;;;;10430466;28;20088;-57
2023/11/15 04:45:13;;;;;;;2.38;1.33;;;15.80;76.70;;;;;;10425313;28;20443;-58
2023/11/15 04:50:14;;;;;;;2.72;1.10;;;15.80;76.60;;;;;;10432567;28;20040;-58
2023/11/15 04:55:14;;;;;;;2.42;1.00;;;15.80;76.60;;;;;;10430364;28;20021;-58
2023/11/15 05:00:15;;;;;;;4.53;1.02;;;15.80;76.60;;;;;;10430893;28;20017;-57
2023/11/15 05:05:16;;;;;;;1.63;0.98;;;15.80;76.60;;;;;;10430409;28;20044;-57
2023/11/15 05:10:18;;;;;;;1.48;0.77;;;15.80;76.60;;;;;;10428628;28;20025;-57
2023/11/15 05:15:18;;;;;;;2.63;0.90;;;15.80;76.50;;;;;;10431446;28;20488;-56
2023/11/15 05:20:20;;;;;;;2.00;0.70;;;15.80;76.60;;;;;;10427938;28;20028;-57
2023/11/15 05:25:21;;;;;;;3.05;1.30;;;15.80;76.60;;;;;;10425322;28;20475;-56
2023/11/15 05:30:22;;;;;;;4.00;1.13;;;15.80;76.60;;;;;;10430656;28;20100;-58
2023/11/15 05:35:23;;;;;;;2.13;0.93;;;15.80;76.60;;;;;;10429429;28;20048;-57
2023/11/15 05:40:23;;;;;;;2.17;0.85;;;15.80;76.60;;;;;;10426929;28;20014;-57
2023/11/15 05:45:25;;;;;;;2.42;0.70;;;15.90;76.40;;;;;;10426115;28;20048;-57
2023/11/15 05:50:26;;;;;;;2.20;0.90;;;16.10;75.60;;;;;;10424523;28;20060;-57
2023/11/15 05:55:28;;;;;;;3.30;0.93;;;16.40;74.50;;;;;;10392720;28;20049;-57
2023/11/15 06:00:31;;;;;;;4.07;0.88;;;16.70;73.80;;;;;;10410907;28;20040;-57
2023/11/15 06:05:32;;;;;;;3.50;1.13;;;16.90;73.50;;;;;;10411371;28;20113;-57
2023/11/15 06:10:32;;;;;;;6.78;1.65;;;17.20;72.80;;;;;;10408427;28;20112;-56
2023/11/15 06:15:33;;;;;;;2.90;0.80;;;17.30;73.10;;;;;;10409717;28;20041;-58
2023/11/15 06:20:34;;;;;;;3.13;0.93;;;17.60;73.30;;;;;;10408422;28;20040;-55
2023/11/15 06:25:35;;;;;;;7.55;1.88;;;17.70;73.10;;;;;;10409024;28;20248;-55
2023/11/15 06:30:36;;;;;;;4.13;1.20;;;17.70;72.80;;;;;;10421172;28;20504;-56
2023/11/15 06:35:37;;;;;;;10.40;1.50;;;17.80;72.90;;;;;;10408184;28;20033;-55
2023/11/15 06:40:38;;;;;;;18.65;2.47;;;17.80;73.00;;;;;;10407749;28;20032;-55
2023/11/15 06:45:38;;;;;;;10.70;1.50;;;17.90;72.20;;;;;;10406905;28;20029;-57
2023/11/15 06:50:39;;;;;;;21.98;2.92;;;18.10;72.30;;;;;;10403508;28;20373;-57
2023/11/15 06:55:40;;;;;;;18.80;3.50;;;18.10;72.40;;;;;;10405618;28;20034;-60
2023/11/15 07:00:44;;;;;;;24.50;3.15;;;18.00;72.20;;;;;;10407655;28;20026;-57
2023/11/15 07:05:48;;;;;;;21.95;3.60;;;17.80;72.60;;;;;;10409342;28;20039;-56
2023/11/15 07:10:49;;;;;;;31.02;6.38;;;17.90;72.60;;;;;;10414525;28;20049;-57
2023/11/15 07:15:50;;;;;;;28.75;4.63;;;17.70;73.20;;;;;;10409587;28;20034;-57
2023/11/15 07:20:50;;;;;;;32.20;4.90;;;17.60;73.60;;;;;;10408804;28;20088;-58
2023/11/15 07:25:51;;;;;;;28.15;3.47;;;17.50;73.50;;;;;;10398339;28;20389;-57
2023/11/15 07:30:55;;;;;;;27.25;3.35;;;17.60;73.00;;;;;;10408293;28;20045;-56
2023/11/15 07:35:56;;;;;;;20.20;2.88;;;17.70;72.80;;;;;;10408773;28;20087;-56
2023/11/15 07:40:57;;;;;;;18.50;3.55;;;17.60;73.10;;;;;;10408275;28;20550;-57
2023/11/15 07:45:59;;;;;;;27.27;4.78;;;17.50;73.10;;;;;;10407751;28;20475;-57
2023/11/15 07:51:03;;;;;;;13.30;2.47;;;17.50;73.10;;;;;;10408014;28;20392;-58
2023/11/15 07:56:06;;;;;;;12.27;3.10;;;17.60;72.90;;;;;;10408828;28;20525;-58
2023/11/15 08:01:09;;;;;;;13.82;3.28;;;17.60;72.90;;;;;;10408328;28;20083;-57
2023/11/15 08:06:10;;;;;;;11.48;3.00;;;17.50;73.20;;;;;;10408426;28;20079;-57
2023/11/15 08:11:11;;;;;;;17.85;2.88;;;17.40;73.40;;;;;;10407535;28;20080;-58
2023/11/15 08:16:12;;;;;;;12.70;2.35;;;17.40;73.40;;;;;;10408123;28;20034;-57
2023/11/15 08:21:13;;;;;;;12.82;2.42;;;17.40;73.60;;;;;;10407465;28;20048;-57
2023/11/15 08:26:20;;;;;;;11.65;1.98;;;17.30;74.00;;;;;;10407936;28;20033;-57
2023/11/15 08:31:23;;;;;;;10.30;2.70;;;17.40;73.80;;;;;;10408813;28;20536;-57
2023/11/15 08:36:23;;;;;;;14.57;3.13;;;17.40;73.70;;;;;;10407618;28;20037;-57
2023/11/15 08:41:24;;;;;;;10.15;1.90;;;17.30;74.00;;;;;;10409575;28;20438;-57
2023/11/15 08:46:26;;;;;;;9.23;2.25;;;17.20;74.30;;;;;;10427012;28;20095;-57
2023/11/15 08:51:29;;;;;;;13.13;2.83;;;17.20;75.10;;;;;;10420765;28;20139;-56
2023/11/15 08:56:31;;;;;;;8.98;2.05;;;17.00;75.70;;;;;;10428941;28;20068;-57
2023/11/15 09:01:32;;;;;;;9.30;2.28;;;17.00;75.10;;;;;;10431049;28;20116;-57
2023/11/15 09:06:34;;;;;;;8.13;1.90;;;17.20;74.80;;;;;;10417023;28;20029;-57
2023/11/15 09:11:35;;;;;;;8.23;2.88;;;17.10;75.00;;;;;;10413802;28;20040;-58
2023/11/15 09:16:41;;;;;;;7.13;2.58;;;17.10;75.40;;;;;;10413881;28;20036;-59
2023/11/15 09:21:44;;;;;;;7.53;2.00;;;17.10;74.90;;;;;;10412889;28;20026;-59
2023/11/15 09:26:45;;;;;;;10.18;2.15;;;17.10;74.90;;;;;;10413785;28;20390;-59
2023/11/15 09:31:46;;;;;;;9.57;2.22;;;17.00;74.90;;;;;;10411267;28;20050;-57
2023/11/15 09:36:47;;;;;;;11.63;2.55;;;16.90;75.60;;;;;;10413394;28;20029;-57
2023/11/15 09:41:51;;;;;;;13.38;2.10;;;16.90;75.60;;;;;;10412949;28;20121;-57
2023/11/15 09:46:57;;;;;;;13.98;2.22;;;17.10;76.10;;;;;;10416672;28;20079;-57
2023/11/15 09:52:00;;;;;;;10.25;2.30;;;17.10;75.50;;;;;;10411367;28;20092;-57
2023/11/15 09:57:01;;;;;;;9.80;2.08;;;17.20;76.30;;;;;;10411618;28;20030;-57
2023/11/15 10:02:03;;;;;;;11.55;2.20;;;17.20;76.40;;;;;;10411017;28;20033;-57
2023/11/15 10:07:03;;;;;;;7.40;2.70;;;17.20;76.60;;;;;;10411626;28;20057;-57
2023/11/15 10:12:06;;;;;;;9.75;3.03;;;17.20;76.70;;;;;;10411813;28;20108;-57
2023/11/15 10:17:06;;;;;;;8.68;1.73;;;17.20;76.60;;;;;;10411699;28;20045;-57
2023/11/15 10:22:10;;;;;;;9.82;2.90;;;17.20;76.60;;;;;;10411223;28;20030;-57
2023/11/15 10:27:14;;;;;;;9.40;1.92;;;17.20;76.60;;;;;;10411376;28;20108;-57
2023/11/15 10:32:20;;;;;;;8.32;1.92;;;17.20;76.70;;;;;;10411939;28;20054;-57
2023/11/15 10:37:23;;;;;;;6.07;2.40;;;17.30;76.80;;;;;;10421075;28;20057;-57
2023/11/15 10:42:28;;;;;;;10.32;2.67;;;17.30;77.10;;;;;;10427265;28;20368;-57
2023/11/15 10:47:31;;;;;;;8.05;2.08;;;17.40;77.10;;;;;;10414234;28;20091;-57
2023/11/15 10:52:32;;;;;;;17.65;3.67;;;17.40;78.10;;;;;;10410082;28;20520;-57
2023/11/15 10:57:36;;;;;;;15.27;9.02;;;17.40;78.40;;;;;;10423000;28;20034;-57
2023/11/15 11:02:41;;;;;;;16.17;5.50;;;17.40;79.50;;;;;;10408498;28;20060;-57
2023/11/15 11:07:57;;;;;;;18.35;4.72;;;17.40;77.50;;;;;;10407681;28;20021;-56
2023/11/15 11:12:58;;;;;;;13.00;4.03;;;17.20;77.50;;;;;;10417954;28;20405;-57
2023/11/15 11:18:15;;;;;;;10.90;4.32;;;17.10;77.70;;;;;;10410516;28;20099;-60
2023/11/15 11:23:22;;;;;;;12.63;4.63;;;17.10;77.50;;;;;;10411078;28;20103;-57
2023/11/15 11:28:23;;;;;;;13.25;4.50;;;17.20;77.30;;;;;;10411894;28;20123;-57
2023/11/15 11:33:24;;;;;;;11.45;4.60;;;17.30;77.60;;;;;;10421753;28;20054;-56
2023/11/15 11:38:43;;;;;;;9.25;3.72;;;17.20;77.30;;;;;;10413056;28;20018;-56
2023/11/15 11:43:56;;;;;;;12.40;4.50;;;17.10;77.30;;;;;;10407992;28;20472;-56
2023/11/15 11:48:59;;;;;;;9.07;3.50;;;17.10;77.60;;;;;;10410400;28;20028;-55
2023/11/15 11:54:01;;;;;;;8.88;3.63;;;17.00;77.50;;;;;;10413221;28;20041;-56
2023/11/15 11:59:12;;;;;;;5.55;2.22;;;17.10;77.60;;;;;;10405794;28;20504;-55
2023/11/15 12:04:19;;;;;;;8.43;2.50;;;17.00;77.80;;;;;;10404796;28;20443;-55
2023/11/15 12:09:23;;;;;;;7.97;2.63;;;17.10;78.00;;;;;;10402676;28;20030;-55
2023/11/15 12:14:24;;;;;;;7.30;2.50;;;17.00;77.60;;;;;;10406789;28;20604;-57
2023/11/15 12:19:27;;;;;;;8.55;2.35;;;17.00;77.90;;;;;;10422313;28;20042;-57
2023/11/15 12:24:28;;;;;;;9.70;3.33;;;16.90;77.60;;;;;;10406550;28;20037;-57
2023/11/15 12:29:35;;;;;;;10.35;2.90;;;16.90;78.00;;;;;;10407859;28;20058;-56
2023/11/15 12:34:36;;;;;;;11.43;3.08;;;16.90;77.90;;;;;;10420866;28;20113;-57
2023/11/15 12:39:37;;;;;;;7.43;2.15;;;16.80;78.20;;;;;;10413600;28;20037;-56
2023/11/15 12:44:45;;;;;;;9.23;2.72;;;16.80;78.30;;;;;;10401077;28;20088;-57
2023/11/15 12:49:46;;;;;;;9.27;2.65;;;16.70;78.20;;;;;;10408337;28;20034;-58
2023/11/15 12:54:54;;;;;;;12.38;2.95;;;16.70;78.60;;;;;;10411859;28;20037;-57
2023/11/15 12:59:56;;;;;;;3.97;2.05;;;16.80;77.90;;;;;;10414561;28;20601;-57
2023/11/15 13:05:03;;;;;;;5.68;2.20;;;16.70;77.80;;;;;;10412256;28;20071;-57
2023/11/15 13:10:04;;;;;;;8.30;1.80;;;16.70;77.90;;;;;;10411138;28;20033;-56
2023/11/15 13:15:09;;;;;;;13.20;2.78;;;16.70;77.60;;;;;;10416445;28;20030;-57
2023/11/15 13:20:15;;;;;;;14.88;2.25;;;16.80;78.30;;;;;;10413956;28;20112;-58
2023/11/15 13:25:16;;;;;;;9.50;2.30;;;16.90;77.20;;;;;;10413242;28;20568;-57
2023/11/15 13:30:17;;;;;;;17.45;2.38;;;17.00;77.90;;;;;;10426752;28;20073;-61
2023/11/15 13:35:18;;;;;;;13.45;3.03;;;17.10;77.40;;;;;;10414863;28;20033;-60
2023/11/15 13:40:19;;;;;;;15.65;2.20;;;17.20;77.30;;;;;;10444793;28;20095;-57
2023/11/15 13:45:22;;;;;;;12.32;2.50;;;17.20;77.20;;;;;;10412300;28;20044;-57
2023/11/15 13:50:23;;;;;;;13.38;2.42;;;17.20;77.10;;;;;;10411002;28;20033;-58
2023/11/15 13:55:24;;;;;;;10.15;2.50;;;17.10;77.20;;;;;;10417484;28;20033;-57
2023/11/15 14:00:33;;;;;;;14.05;4.40;;;17.10;77.20;;;;;;10429317;28;20108;-58
2023/11/15 14:05:40;;;;;;;12.50;2.97;;;17.10;77.30;;;;;;10415020;28;20040;-58
2023/11/15 14:10:41;;;;;;;11.00;3.38;;;17.00;77.30;;;;;;10422413;28;20064;-58
2023/11/15 14:15:43;;;;;;;23.08;4.13;;;17.10;77.40;;;;;;10419451;28;20132;-58
2023/11/15 14:20:44;;;;;;;25.85;3.17;;;17.20;76.90;;;;;;10411731;28;20033;-57
2023/11/15 14:25:45;;;;;;;27.30;4.30;;;17.00;77.20;;;;;;10409625;28;20021;-60
2023/11/15 14:30:47;;;;;;;14.57;3.50;;;17.00;77.30;;;;;;10413447;28;20041;-58
2023/11/15 14:35:48;;;;;;;24.15;5.13;;;17.10;77.00;;;;;;10398189;28;20032;-56
2023/11/15 14:40:49;;;;;;;19.40;4.60;;;17.20;79.30;;;;;;10409713;28;20021;-60
2023/11/15 14:45:50;;;;;;;26.48;6.13;;;17.20;77.60;;;;;;10406827;28;20080;-57
2023/11/15 14:50:51;;;;;;;22.42;5.82;;;17.00;78.10;;;;;;10399791;28;20086;-57
2023/11/15 14:55:51;;;;;;;41.13;6.93;;;16.90;78.10;;;;;;10409192;28;20048;-61
2023/11/15 15:00:53;;;;;;;44.03;8.23;;;16.80;78.90;;;;;;10407501;28;20389;-57
2023/11/15 15:05:53;;;;;;;31.42;7.53;;;16.80;78.90;;;;;;10409661;28;20032;-57
2023/11/15 15:10:55;;;;;;;32.75;6.80;;;16.70;79.10;;;;;;10409642;28;20362;-58
2023/11/15 15:15:56;;;;;;;48.25;9.88;;;16.70;79.00;;;;;;10408880;28;20553;-57
2023/11/15 15:20:57;;;;;;;42.42;8.15;;;16.70;79.00;;;;;;10408990;28;20018;-57
2023/11/15 15:25:58;;;;;;;34.83;6.88;;;16.70;78.90;;;;;;10415744;28;20155;-57
2023/11/15 15:30:59;;;;;;;57.10;5.80;;;16.70;78.80;;;;;;10407435;28;20672;-57
2023/11/15 15:36:00;;;;;;;25.60;5.35;;;16.80;78.20;;;;;;10407906;28;20029;-58
2023/11/15 15:41:03;;;;;;;39.83;7.07;;;16.90;78.10;;;;;;10408479;28;20049;-57
2023/11/15 15:46:04;;;;;;;26.58;4.30;;;17.00;77.70;;;;;;10408571;28;20469;-57
2023/11/15 15:51:06;;;;;;;23.27;5.00;;;17.10;77.10;;;;;;10413080;28;20036;-56
2023/11/15 15:56:07;;;;;;;20.73;5.00;;;17.20;77.80;;;;;;10409082;28;20030;-57
2023/11/15 16:01:08;;;;;;;19.55;4.97;;;17.20;78.10;;;;;;10415084;28;20029;-56
2023/11/15 16:06:08;;;;;;;29.70;6.35;;;17.20;78.30;;;;;;10418934;28;20057;-56
2023/11/15 16:11:09;;;;;;;28.73;7.35;;;17.30;78.80;;;;;;10416977;28;20087;-59
2023/11/15 16:16:11;;;;;;;28.90;6.20;;;17.40;78.50;;;;;;10415949;28;20029;-58
2023/11/15 16:21:11;;;;;;;32.47;7.10;;;17.40;78.90;;;;;;10416526;28;20687;-59
2023/11/15 16:26:15;;;;;;;31.48;5.63;;;17.40;79.20;;;;;;10415794;28;20033;-56
2023/11/15 16:31:16;;;;;;;21.33;5.45;;;17.40;78.70;;;;;;10418930;28;20056;-55
2023/11/15 16:36:17;;;;;;;29.13;6.03;;;17.50;78.60;;;;;;10416300;28;20493;-56
2023/11/15 16:41:18;;;;;;;30.92;7.03;;;17.60;79.40;;;;;;10412472;28;20032;-55
2023/11/15 16:46:19;;;;;;;25.45;5.93;;;17.60;79.80;;;;;;10417010;28;20369;-57
2023/11/15 16:51:19;;;;;;;27.83;5.95;;;17.70;80.10;;;;;;10430502;28;20029;-55
2023/11/15 16:56:20;;;;;;;25.33;5.38;;;17.80;80.20;;;;;;10462491;28;20044;-56
2023/11/15 17:01:21;;;;;;;33.22;7.05;;;18.00;79.50;;;;;;10422112;28;20092;-56
2023/11/15 17:06:23;;;;;;;49.10;9.15;;;17.90;79.90;;;;;;10410438;28;20381;-60
2023/11/15 17:11:24;;;;;;;42.80;7.50;;;17.70;80.30;;;;;;10409447;28;20124;-57
2023/11/15 17:16:25;;;;;;;48.75;8.32;;;17.60;80.30;;;;;;10395016;28;20034;-57
2023/11/15 17:21:27;;;;;;;36.28;6.07;;;17.50;80.60;;;;;;10406285;28;20025;-56
2023/11/15 17:26:30;;;;;;;23.95;6.40;;;17.40;80.70;;;;;;10405450;28;20501;-57
2023/11/15 17:31:32;;;;;;;30.27;7.22;;;17.30;80.90;;;;;;10399528;28;20038;-55
2023/11/15 17:36:34;;;;;;;30.27;6.47;;;17.40;80.90;;;;;;10409389;28;20128;-55
2023/11/15 17:41:35;;;;;;;45.95;7.20;;;17.40;80.70;;;;;;10410007;28;20025;-56
2023/11/15 17:46:41;;;;;;;28.40;6.63;;;17.40;80.50;;;;;;10409344;28;20033;-56
2023/11/15 17:51:45;;;;;;;30.30;6.20;;;17.30;80.40;;;;;;10410576;28;20353;-56
2023/11/15 17:56:45;;;;;;;31.77;7.55;;;17.20;80.80;;;;;;10400247;28;20026;-56
2023/11/15 18:01:48;;;;;;;25.67;4.82;;;17.10;80.80;;;;;;10409077;28;20052;-56
2023/11/15 18:06:49;;;;;;;31.52;7.65;;;17.10;80.80;;;;;;10409001;28;20033;-55
2023/11/15 18:11:49;;;;;;;23.08;4.97;;;17.00;80.80;;;;;;10408676;28;20025;-55
2023/11/15 18:16:50;;;;;;;32.15;5.65;;;17.00;80.80;;;;;;10407954;28;20033;-55
2023/11/15 18:21:51;;;;;;;22.15;5.03;;;16.90;80.70;;;;;;10409551;28;20059;-54
2023/11/15 18:26:52;;;;;;;29.30;6.53;;;16.90;80.60;;;;;;10439011;28;20057;-56
2023/11/15 18:31:53;;;;;;;31.65;6.40;;;16.90;81.30;;;;;;10409654;28;20289;-56
2023/11/15 18:36:54;;;;;;;21.33;5.45;;;16.90;81.30;;;;;;10410827;28;20094;-55
2023/11/15 18:41:54;;;;;;;24.77;6.75;;;16.90;81.20;;;;;;10410252;28;20017;-56
2023/11/15 18:46:55;;;;;;;18.48;4.43;;;16.80;81.10;;;;;;10410301;28;20033;-55
2023/11/15 18:51:57;;;;;;;20.92;4.07;;;16.80;80.70;;;;;;10409554;28;20036;-56
2023/11/15 18:56:58;;;;;;;13.90;3.50;;;16.90;80.40;;;;;;10389128;28;20030;-56
2023/11/15 19:01:59;;;;;;;16.77;3.95;;;16.80;80.30;;;;;;10430458;28;20026;-55
2023/11/15 19:07:00;;;;;;;16.75;4.05;;;16.80;80.40;;;;;;10398045;28;20041;-55
2023/11/15 19:12:03;;;;;;;11.30;3.22;;;16.80;80.00;;;;;;10402538;28;20048;-56
2023/11/15 19:17:06;;;;;;;19.13;4.10;;;16.90;79.70;;;;;;10406861;28;20034;-57
2023/11/15 19:22:06;;;;;;;12.45;3.15;;;17.00;79.90;;;;;;10400247;28;20025;-56
2023/11/15 19:27:07;;;;;;;13.52;3.10;;;17.00;79.70;;;;;;10405058;28;20029;-56
2023/11/15 19:32:08;;;;;;;10.23;3.45;;;17.00;79.80;;;;;;10408998;28;20052;-56
2023/11/15 19:37:09;;;;;;;12.63;3.78;;;17.00;79.80;;;;;;10402369;28;20037;-55
2023/11/15 19:42:11;;;;;;;10.52;4.05;;;16.90;79.90;;;;;;10413651;28;20051;-56
2023/11/15 19:47:12;;;;;;;9.10;3.17;;;16.90;79.80;;;;;;10422102;28;20401;-55
2023/11/15 19:52:13;;;;;;;8.95;3.13;;;16.90;80.40;;;;;;10425848;28;20031;-56
2023/11/15 19:57:15;;;;;;;9.63;2.72;;;16.90;79.80;;;;;;10424192;28;20017;-56
2023/11/15 20:02:16;;;;;;;10.73;2.85;;;16.90;79.60;;;;;;10424945;28;20024;-56
2023/11/15 20:07:17;;;;;;;13.00;4.03;;;16.90;79.70;;;;;;10425939;28;20033;-56
2023/11/15 20:12:21;;;;;;;8.15;3.38;;;16.90;79.60;;;;;;10422437;28;20103;-56
2023/11/15 20:17:22;;;;;;;8.85;2.55;;;16.80;79.60;;;;;;10408162;28;20041;-57
2023/11/15 20:22:23;;;;;;;11.60;2.50;;;16.80;79.60;;;;;;10406123;28;20025;-56
2023/11/15 20:27:24;;;;;;;7.38;3.15;;;16.80;79.80;;;;;;10412392;28;20041;-57
2023/11/15 20:32:28;;;;;;;6.05;2.22;;;16.70;79.90;;;;;;10395954;28;20103;-57
2023/11/15 20:37:30;;;;;;;7.10;1.92;;;16.70;79.90;;;;;;10413645;28;20170;-57
2023/11/15 20:42:31;;;;;;;12.48;3.72;;;16.60;79.80;;;;;;10427196;28;20029;-57
2023/11/15 20:47:32;;;;;;;7.68;2.20;;;16.60;79.80;;;;;;10427814;28;20048;-57
2023/11/15 20:52:33;;;;;;;10.68;2.80;;;16.60;79.70;;;;;;10428398;28;20048;-55
2023/11/15 20:57:36;;;;;;;5.75;2.92;;;16.50;79.70;;;;;;10428330;28;20037;-57
2023/11/15 21:02:37;;;;;;;8.13;1.90;;;16.50;79.70;;;;;;10431468;28;20025;-57
2023/11/15 21:07:38;;;;;;;7.53;1.70;;;16.50;79.70;;;;;;10433525;28;20021;-57
2023/11/15 21:12:39;;;;;;;6.38;2.90;;;16.50;79.90;;;;;;10431537;28;20380;-57
2023/11/15 21:17:44;;;;;;;7.38;2.30;;;16.40;79.60;;;;;;10434122;28;20033;-56
2023/11/15 21:22:45;;;;;;;6.18;2.35;;;16.40;79.60;;;;;;10427898;28;20048;-57
2023/11/15 21:27:45;;;;;;;5.68;2.15;;;16.40;79.50;;;;;;10432808;28;20041;-57
2023/11/15 21:32:47;;;;;;;4.10;2.20;;;16.40;79.50;;;;;;10429745;28;20094;-57
2023/11/15 21:37:49;;;;;;;3.20;1.67;;;16.40;79.40;;;;;;10425728;28;20200;-57
2023/11/15 21:42:51;;;;;;;5.03;1.67;;;16.40;79.40;;;;;;10413417;28;20428;-57
2023/11/15 21:47:52;;;;;;;6.85;2.60;;;16.30;79.20;;;;;;10413733;28;20060;-57
2023/11/15 21:52:54;;;;;;;5.82;1.95;;;16.40;79.30;;;;;;10444763;28;20025;-57
2023/11/15 21:57:57;;;;;;;4.47;2.38;;;16.30;79.20;;;;;;10413069;28;20022;-57
2023/11/15 22:02:58;;;;;;;7.78;2.10;;;16.30;79.30;;;;;;10411831;28;20500;-57
2023/11/15 22:07:58;;;;;;;4.63;1.85;;;16.30;79.30;;;;;;10412680;28;20043;-56
2023/11/15 22:12:59;;;;;;;4.30;1.83;;;16.30;79.20;;;;;;10412342;28;20048;-57
2023/11/15 22:18:00;;;;;;;5.10;1.42;;;16.30;79.20;;;;;;10412492;28;20063;-57
2023/11/15 22:23:01;;;;;;;3.75;1.42;;;16.30;79.10;;;;;;10393918;28;20029;-57
2023/11/15 22:28:02;;;;;;;5.05;2.22;;;16.30;79.10;;;;;;10412175;28;20053;-56
2023/11/15 22:33:04;;;;;;;4.18;1.58;;;16.30;79.10;;;;;;10409834;28;20065;-57
2023/11/15 22:38:04;;;;;;;5.65;1.83;;;16.20;79.00;;;;;;10411583;28;20033;-57
2023/11/15 22:43:05;;;;;;;4.95;1.30;;;16.20;79.00;;;;;;10411075;28;20025;-57
2023/11/15 22:48:06;;;;;;;4.22;1.73;;;16.20;79.00;;;;;;10410952;28;20064;-57
2023/11/15 22:53:07;;;;;;;4.47;1.60;;;16.20;79.00;;;;;;10410691;28;20075;-57
2023/11/15 22:58:07;;;;;;;4.28;1.33;;;16.20;79.00;;;;;;10410704;28;20029;-57
2023/11/15 23:03:08;;;;;;;5.00;1.80;;;16.20;78.90;;;;;;10408795;28;20025;-57
2023/11/15 23:08:12;;;;;;;5.05;2.13;;;16.20;78.90;;;;;;10410169;28;20116;-57
2023/11/15 23:13:15;;;;;;;7.10;1.90;;;16.20;79.00;;;;;;10409077;28;20029;-57
2023/11/15 23:18:18;;;;;;;4.10;1.77;;;16.20;79.00;;;;;;10409887;28;20042;-57
2023/11/15 23:23:18;;;;;;;3.50;1.63;;;16.20;79.00;;;;;;10409537;28;21015;-57
2023/11/15 23:28:21;;;;;;;2.20;1.23;;;16.10;78.90;;;;;;10409601;28;20079;-57
2023/11/15 23:33:22;;;;;;;5.20;1.50;;;16.10;78.80;;;;;;10409078;28;20072;-57
2023/11/15 23:38:23;;;;;;;5.78;1.40;;;16.10;78.90;;;;;;10409367;28;20392;-56
2023/11/15 23:43:28;;;;;;;5.65;1.52;;;16.10;78.80;;;;;;10408774;28;20463;-57
2023/11/15 23:48:31;;;;;;;4.20;1.10;;;16.10;78.80;;;;;;10409141;28;20026;-57
2023/11/15 23:53:33;;;;;;;3.78;1.20;;;16.10;78.70;;;;;;10408611;28;20036;-57
2023/11/15 23:58:34;;;;;;;4.53;1.45;;;16.10;78.60;;;;;;10408933;28;20021;-57
